createdAt,value
2023-04-07T00:01:03.544Z,91.64
2023-04-07T00:05:55.571Z,91.10
2023-04-07T00:10:47.458Z,91.33
2023-04-07T00:15:39.218Z,92.01
2023-04-07T00:20:31.138Z,91.49
2023-04-07T00:25:22.889Z,91.88
2023-04-07T00:30:15.477Z,91.62
2023-04-07T00:35:07.501Z,91.52
2023-04-07T00:39:59.438Z,91.64
2023-04-07T00:44:51.558Z,92.05
2023-04-07T00:49:43.317Z,92.27
2023-04-07T00:54:35.002Z,91.81
2023-04-07T00:59:26.697Z,91.88
2023-04-07T01:04:39.887Z,91.56
2023-04-07T01:09:43.264Z,91.53
2023-04-07T01:14:42.428Z,91.18
2023-04-07T01:20:03.481Z,91.23
2023-04-07T01:25:14.235Z,91.48
2023-04-07T01:30:11.937Z,91.73
2023-04-07T01:35:10.037Z,91.27
2023-04-07T01:40:03.209Z,91.03
2023-04-07T01:44:56.973Z,91.00
2023-04-07T01:49:51.044Z,91.48
2023-04-07T01:54:43.628Z,91.49
2023-04-07T01:59:35.412Z,91.16
2023-04-07T02:04:49.071Z,91.12
2023-04-07T02:09:43.542Z,90.70
2023-04-07T02:14:36.947Z,90.91
2023-04-07T02:19:35.902Z,89.71
2023-04-07T02:24:27.834Z,89.00
2023-04-07T02:29:19.618Z,89.35
2023-04-07T02:34:11.354Z,89.36
2023-04-07T02:39:04.248Z,88.41
2023-04-07T02:43:56.161Z,88.42
2023-04-07T02:48:48.089Z,88.83
2023-04-07T02:53:39.833Z,88.81
2023-04-07T02:58:31.781Z,88.12
2023-04-07T03:03:24.019Z,88.52
2023-04-07T03:08:27.611Z,87.93
2023-04-07T03:13:21.027Z,88.12
2023-04-07T03:18:13.245Z,88.15
2023-04-07T03:23:08.021Z,88.01
2023-04-07T03:27:59.906Z,87.97
2023-04-07T03:32:55.991Z,88.21
2023-04-07T03:37:47.860Z,87.79
2023-04-07T03:42:43.392Z,87.93
2023-04-07T03:47:37.296Z,87.42
2023-04-07T03:52:30.729Z,87.18
2023-04-07T03:57:29.991Z,86.83
2023-04-07T04:02:22.135Z,86.83
2023-04-07T04:07:17.410Z,86.85
2023-04-07T04:12:18.302Z,86.86
2023-04-07T04:17:28.672Z,86.58
2023-04-07T04:22:20.565Z,86.17
2023-04-07T04:27:17.072Z,85.79
2023-04-07T04:32:12.754Z,86.17
2023-04-07T04:37:07.803Z,85.50
2023-04-07T04:42:00.007Z,85.76
2023-04-07T04:46:57.824Z,85.96
2023-04-07T04:51:49.728Z,85.28
2023-04-07T04:56:42.893Z,85.41
2023-04-07T05:01:35.518Z,85.23
2023-04-07T05:06:32.647Z,84.81
2023-04-07T05:11:30.383Z,84.42
2023-04-07T05:16:22.169Z,84.11
2023-04-07T05:21:14.806Z,83.78
2023-04-07T05:26:06.581Z,83.16
2023-04-07T05:30:58.309Z,83.32
2023-04-07T05:35:54.814Z,83.24
2023-04-07T05:40:47.437Z,82.88
2023-04-07T05:45:46.265Z,82.42
2023-04-07T05:50:38.119Z,82.41
2023-04-07T05:55:33.704Z,81.94
2023-04-07T06:00:25.775Z,82.19
2023-04-07T06:05:26.861Z,82.94
2023-04-07T06:10:21.157Z,82.57
2023-04-07T06:15:12.996Z,82.70
2023-04-07T06:20:05.194Z,82.15
2023-04-07T06:24:58.207Z,81.86
2023-04-07T06:29:50.019Z,81.74
2023-04-07T06:34:41.876Z,80.83
2023-04-07T06:39:34.068Z,80.95
2023-04-07T06:44:25.866Z,81.64
2023-04-07T06:49:17.601Z,81.28
2023-04-07T06:54:12.952Z,81.77
2023-04-07T07:45:59.893Z,78.48
2023-04-07T07:50:52.628Z,78.05
2023-04-07T07:55:45.642Z,76.69
2023-04-07T08:00:37.426Z,75.53
2023-04-07T08:05:29.173Z,75.16
2023-04-07T08:10:21.900Z,75.60
2023-04-07T08:15:13.682Z,75.22
2023-04-07T08:20:06.719Z,75.11
2023-04-07T08:24:58.577Z,74.34
2023-04-07T08:30:03.232Z,75.06
2023-04-07T08:34:56.182Z,73.91
2023-04-07T08:39:47.876Z,72.94
2023-04-07T08:44:40.433Z,72.64
2023-04-07T08:49:33.440Z,71.72
2023-04-07T08:54:26.328Z,71.92
2023-04-07T08:59:18.782Z,70.32
2023-04-07T09:04:11.089Z,68.85
2023-04-07T09:09:05.980Z,68.67
2023-04-07T09:13:59.062Z,67.58
2023-04-07T09:18:51.005Z,68.16
2023-04-07T09:23:43.229Z,68.02
2023-04-07T09:28:42.485Z,68.23
2023-04-07T09:33:35.608Z,67.74
2023-04-07T09:38:39.168Z,67.58
2023-04-07T09:43:30.995Z,68.81
2023-04-07T09:48:22.945Z,69.63
2023-04-07T09:53:15.580Z,68.95
2023-04-07T09:58:08.846Z,68.47
2023-04-07T10:03:00.895Z,67.39
2023-04-07T10:07:54.580Z,70.49
2023-04-07T10:12:48.432Z,71.01
2023-04-07T10:17:45.578Z,70.59
2023-04-07T10:22:38.742Z,71.37
2023-04-07T10:27:38.980Z,70.61
2023-04-07T10:32:30.875Z,70.15
2023-04-07T10:37:23.625Z,69.94
2023-04-07T10:42:40.981Z,70.58
2023-04-07T10:47:32.932Z,69.94
2023-04-07T10:52:24.925Z,69.57
2023-04-07T10:57:18.199Z,70.92
2023-04-07T11:02:13.336Z,71.55
2023-04-07T11:07:05.386Z,72.63
2023-04-07T11:11:57.817Z,70.71
2023-04-07T11:16:49.787Z,69.30
2023-04-07T11:21:41.588Z,69.08
2023-04-07T11:26:39.092Z,69.34
2023-04-07T11:31:32.671Z,70.59
2023-04-07T11:36:32.408Z,70.61
2023-04-07T11:41:27.415Z,70.30
2023-04-07T11:46:19.401Z,68.00
2023-04-07T11:51:19.353Z,66.10
2023-04-07T11:56:16.969Z,65.21
2023-04-07T12:01:09.220Z,64.08
2023-04-07T12:06:04.293Z,65.73
2023-04-07T12:11:14.799Z,64.91
2023-04-07T12:16:06.691Z,66.00
2023-04-07T12:20:59.149Z,65.94
2023-04-07T12:25:51.022Z,68.14
2023-04-07T12:30:43.571Z,69.48
2023-04-07T12:35:35.770Z,69.34
2023-04-07T12:40:29.393Z,68.42
2023-04-07T12:45:21.374Z,68.22
2023-04-07T12:50:13.186Z,67.46
2023-04-07T12:55:05.367Z,68.18
2023-04-07T12:59:57.151Z,68.44
2023-04-07T13:04:48.913Z,67.31
2023-04-07T13:09:50.013Z,67.60
2023-04-07T13:14:52.941Z,65.30
2023-04-07T13:19:47.044Z,64.94
2023-04-07T13:24:39.942Z,65.00
2023-04-07T13:29:33.122Z,66.41
2023-04-07T13:34:29.505Z,64.69
2023-04-07T13:40:14.209Z,61.41
2023-04-07T13:45:09.420Z,60.46
2023-04-07T13:50:03.271Z,59.77
2023-04-07T13:54:56.346Z,60.35
2023-04-07T13:59:52.177Z,58.26
2023-04-07T14:04:44.322Z,56.96
2023-04-07T14:09:36.733Z,57.68
2023-04-07T14:14:28.506Z,60.16
2023-04-07T14:19:25.685Z,61.35
2023-04-07T14:24:18.056Z,62.84
2023-04-07T14:29:10.031Z,66.04
2023-04-07T14:34:01.755Z,66.49
2023-04-07T14:38:56.323Z,67.33
2023-04-07T14:43:51.063Z,69.20
2023-04-07T14:48:46.356Z,68.58
2023-04-07T14:53:38.132Z,67.95
2023-04-07T14:58:32.358Z,69.42
2023-04-07T15:03:24.484Z,72.52
2023-04-07T15:08:16.623Z,70.77
2023-04-07T15:13:08.930Z,71.01
2023-04-07T15:18:00.925Z,68.80
2023-04-07T15:22:52.744Z,66.48
2023-04-07T15:27:45.933Z,66.88
2023-04-07T15:32:38.642Z,65.03
2023-04-07T15:37:34.142Z,65.67
2023-04-07T15:42:26.082Z,66.82
2023-04-07T15:47:18.320Z,65.88
2023-04-07T15:52:12.075Z,67.47
2023-04-07T15:57:03.912Z,66.64
2023-04-07T16:01:55.969Z,66.32
2023-04-07T16:06:49.467Z,67.35
2023-04-07T16:11:41.241Z,67.79
2023-04-07T16:16:36.897Z,68.00
2023-04-07T16:21:28.860Z,65.11
2023-04-07T16:26:21.211Z,64.35
2023-04-07T16:31:13.081Z,63.84
2023-04-07T16:36:07.439Z,64.95
2023-04-07T16:41:04.340Z,64.70
2023-04-07T16:45:56.575Z,65.66
2023-04-07T16:50:48.337Z,66.91
2023-04-07T16:55:40.130Z,67.73
2023-04-07T17:00:31.916Z,68.74
2023-04-07T17:05:24.706Z,69.32
2023-04-07T17:10:16.618Z,69.84
2023-04-07T17:15:08.723Z,70.82
2023-04-07T17:20:00.726Z,71.68
2023-04-07T17:24:53.479Z,71.97
2023-04-07T17:29:45.364Z,72.27
2023-04-07T17:34:37.868Z,72.36
2023-04-07T17:39:29.577Z,72.11
2023-04-07T17:44:24.927Z,72.12
2023-04-07T17:49:17.206Z,72.06
2023-04-07T17:54:09.847Z,72.26
2023-04-07T17:59:01.791Z,72.90
2023-04-07T18:03:53.882Z,72.29
2023-04-07T18:08:47.859Z,73.16
2023-04-07T18:13:40.531Z,73.24
2023-04-07T18:18:33.143Z,74.16
2023-04-07T18:23:26.795Z,73.51
2023-04-07T18:28:18.793Z,72.88
2023-04-07T18:33:14.304Z,72.79
2023-04-07T18:38:06.505Z,72.92
2023-04-07T18:42:58.275Z,72.71
2023-04-07T18:47:51.374Z,73.23
2023-04-07T18:52:43.208Z,73.88
2023-04-07T18:57:35.954Z,74.00
2023-04-07T19:02:28.266Z,73.61
2023-04-07T19:07:20.346Z,73.78
2023-04-07T19:12:12.108Z,74.04
2023-04-07T19:17:03.947Z,74.21
2023-04-07T19:21:55.677Z,74.54
2023-04-07T19:26:47.448Z,74.34
2023-04-07T19:31:39.639Z,74.93
2023-04-07T19:36:32.973Z,74.76
2023-04-07T19:41:24.782Z,75.33
2023-04-07T19:46:16.993Z,75.34
2023-04-07T19:51:08.983Z,75.77
2023-04-07T19:56:04.184Z,75.69
2023-04-07T20:00:56.369Z,75.47
2023-04-07T20:05:48.199Z,75.21
2023-04-07T20:10:40.038Z,74.96
2023-04-07T20:15:31.821Z,74.92
2023-04-07T20:20:24.064Z,75.83
2023-04-07T20:25:16.127Z,75.31
2023-04-07T20:30:09.066Z,75.71
2023-04-07T20:35:00.928Z,76.16
2023-04-07T20:39:55.641Z,76.16
2023-04-07T20:44:50.800Z,76.07
2023-04-07T20:49:43.899Z,76.14
2023-04-07T20:54:36.258Z,76.35
2023-04-07T20:59:28.998Z,75.95
2023-04-07T21:04:21.081Z,76.16
2023-04-07T21:09:13.353Z,76.02
2023-04-07T21:14:05.300Z,76.29
2023-04-07T21:18:57.336Z,75.98
2023-04-07T21:23:49.157Z,76.35
